sensor_id;sensor_type;location;lat;lon;timestamp;P1;durP1;ratioP1;P2;durP2;ratioP2
5774;SDS011;2913;51.120;6.772;2023-09-19T00:00:21;795.45;;;216.82;;
5774;SDS011;2913;51.120;6.772;2023-09-19T00:02:56;824.22;;;223.73;;
5774;SDS011;2913;51.120;6.772;2023-09-19T00:05:28;818.72;;;222.75;;
5774;SDS011;2913;51.120;6.772;2023-09-19T00:07:59;754.38;;;207.23;;
5774;SDS011;2913;51.120;6.772;2023-09-19T00:10:26;727.33;;;198.57;;
5774;SDS011;2913;51.120;6.772;2023-09-19T00:12:56;836.00;;;226.40;;
5774;SDS011;2913;51.120;6.772;2023-09-19T00:15:26;856.55;;;229.45;;
5774;SDS011;2913;51.120;6.772;2023-09-19T00:17:55;768.67;;;210.68;;
5774;SDS011;2913;51.120;6.772;2023-09-19T00:20:24;881.42;;;238.48;;
5774;SDS011;2913;51.120;6.772;2023-09-19T00:22:50;873.72;;;236.05;;
5774;SDS011;2913;51.120;6.772;2023-09-19T00:25:24;831.53;;;225.05;;
5774;SDS011;2913;51.120;6.772;2023-09-19T00:27:52;822.40;;;222.60;;
5774;SDS011;2913;51.120;6.772;2023-09-19T00:30:23;641.30;;;175.88;;
5774;SDS011;2913;51.120;6.772;2023-09-19T00:32:52;744.25;;;204.25;;
5774;SDS011;2913;51.120;6.772;2023-09-19T00:35:18;732.20;;;200.57;;
5774;SDS011;2913;51.120;6.772;2023-09-19T00:37:52;712.97;;;196.45;;
5774;SDS011;2913;51.120;6.772;2023-09-19T00:40:20;745.80;;;204.18;;
5774;SDS011;2913;51.120;6.772;2023-09-19T00:42:49;646.03;;;177.20;;
5774;SDS011;2913;51.120;6.772;2023-09-19T00:45:16;589.60;;;161.80;;
5774;SDS011;2913;51.120;6.772;2023-09-19T00:47:43;764.03;;;207.82;;
5774;SDS011;2913;51.120;6.772;2023-09-19T00:50:11;710.67;;;193.50;;
5774;SDS011;2913;51.120;6.772;2023-09-19T00:52:40;695.65;;;190.32;;
5774;SDS011;2913;51.120;6.772;2023-09-19T00:55:09;603.45;;;164.40;;
5774;SDS011;2913;51.120;6.772;2023-09-19T00:57:36;393.63;;;120.53;;
5774;SDS011;2913;51.120;6.772;2023-09-19T01:00:06;723.17;;;197.70;;
5774;SDS011;2913;51.120;6.772;2023-09-19T01:02:40;794.78;;;215.05;;
5774;SDS011;2913;51.120;6.772;2023-09-19T01:05:11;854.28;;;231.10;;
5774;SDS011;2913;51.120;6.772;2023-09-19T01:07:37;684.25;;;187.82;;
5774;SDS011;2913;51.120;6.772;2023-09-19T01:10:06;651.67;;;178.82;;
5774;SDS011;2913;51.120;6.772;2023-09-19T01:27:40;276.55;;;98.57;;
5774;SDS011;2913;51.120;6.772;2023-09-19T01:30:20;348.50;;;111.55;;
5774;SDS011;2913;51.120;6.772;2023-09-19T01:32:52;320.58;;;106.90;;
5774;SDS011;2913;51.120;6.772;2023-09-19T01:35:18;516.47;;;145.65;;
5774;SDS011;2913;51.120;6.772;2023-09-19T01:37:46;489.20;;;140.38;;
5774;SDS011;2913;51.120;6.772;2023-09-19T01:40:13;29.50;;;7.28;;
5774;SDS011;2913;51.120;6.772;2023-09-19T01:42:59;154.45;;;68.75;;
5774;SDS011;2913;51.120;6.772;2023-09-19T01:48:40;488.40;;;141.27;;
5774;SDS011;2913;51.120;6.772;2023-09-19T01:51:13;29.25;;;6.07;;
5774;SDS011;2913;51.120;6.772;2023-09-19T01:53:51;25.98;;;4.63;;
5774;SDS011;2913;51.120;6.772;2023-09-19T01:56:29;15.35;;;2.20;;
5774;SDS011;2913;51.120;6.772;2023-09-19T01:59:04;14.35;;;3.65;;
5774;SDS011;2913;51.120;6.772;2023-09-19T02:01:34;26.70;;;3.47;;
5774;SDS011;2913;51.120;6.772;2023-09-19T02:04:02;18.42;;;2.83;;
5774;SDS011;2913;51.120;6.772;2023-09-19T02:06:27;24.52;;;3.63;;
5774;SDS011;2913;51.120;6.772;2023-09-19T02:08:53;22.27;;;3.25;;
5774;SDS011;2913;51.120;6.772;2023-09-19T02:11:21;14.48;;;2.63;;
5774;SDS011;2913;51.120;6.772;2023-09-19T02:13:49;20.50;;;2.35;;
5774;SDS011;2913;51.120;6.772;2023-09-19T02:16:19;18.48;;;2.95;;
5774;SDS011;2913;51.120;6.772;2023-09-19T02:18:46;29.48;;;3.40;;
5774;SDS011;2913;51.120;6.772;2023-09-19T02:21:14;22.73;;;2.40;;
5774;SDS011;2913;51.120;6.772;2023-09-19T02:23:40;26.85;;;3.28;;
5774;SDS011;2913;51.120;6.772;2023-09-19T02:26:06;20.15;;;2.50;;
5774;SDS011;2913;51.120;6.772;2023-09-19T02:28:32;16.25;;;2.63;;
5774;SDS011;2913;51.120;6.772;2023-09-19T02:30:59;23.00;;;3.25;;
5774;SDS011;2913;51.120;6.772;2023-09-19T02:33:24;17.25;;;2.47;;
5774;SDS011;2913;51.120;6.772;2023-09-19T02:35:54;13.20;;;2.05;;
5774;SDS011;2913;51.120;6.772;2023-09-19T02:38:25;18.17;;;2.75;;
5774;SDS011;2913;51.120;6.772;2023-09-19T02:40:51;13.18;;;2.05;;
5774;SDS011;2913;51.120;6.772;2023-09-19T02:43:17;25.42;;;2.20;;
5774;SDS011;2913;51.120;6.772;2023-09-19T02:45:44;25.90;;;2.55;;
5774;SDS011;2913;51.120;6.772;2023-09-19T02:48:17;17.58;;;2.35;;
5774;SDS011;2913;51.120;6.772;2023-09-19T02:50:49;26.85;;;3.92;;
5774;SDS011;2913;51.120;6.772;2023-09-19T02:53:14;18.70;;;2.15;;
5774;SDS011;2913;51.120;6.772;2023-09-19T02:55:44;16.90;;;2.50;;
5774;SDS011;2913;51.120;6.772;2023-09-19T02:58:12;18.10;;;2.42;;
5774;SDS011;2913;51.120;6.772;2023-09-19T03:00:40;21.33;;;2.80;;
5774;SDS011;2913;51.120;6.772;2023-09-19T03:03:07;18.35;;;2.53;;
5774;SDS011;2913;51.120;6.772;2023-09-19T03:05:36;20.30;;;2.55;;
5774;SDS011;2913;51.120;6.772;2023-09-19T03:08:03;20.63;;;2.83;;
5774;SDS011;2913;51.120;6.772;2023-09-19T03:10:31;30.25;;;3.35;;
5774;SDS011;2913;51.120;6.772;2023-09-19T03:12:57;15.43;;;2.40;;
5774;SDS011;2913;51.120;6.772;2023-09-19T03:15:26;23.02;;;2.72;;
5774;SDS011;2913;51.120;6.772;2023-09-19T03:17:52;13.63;;;2.55;;
5774;SDS011;2913;51.120;6.772;2023-09-19T03:20:19;45.50;;;3.28;;
5774;SDS011;2913;51.120;6.772;2023-09-19T03:22:46;16.80;;;2.30;;
5774;SDS011;2913;51.120;6.772;2023-09-19T03:25:12;16.42;;;1.98;;
5774;SDS011;2913;51.120;6.772;2023-09-19T03:27:40;18.17;;;2.88;;
5774;SDS011;2913;51.120;6.772;2023-09-19T03:30:06;27.17;;;2.58;;
5774;SDS011;2913;51.120;6.772;2023-09-19T03:32:36;17.77;;;2.58;;
5774;SDS011;2913;51.120;6.772;2023-09-19T03:35:08;17.95;;;2.10;;
5774;SDS011;2913;51.120;6.772;2023-09-19T03:37:39;23.20;;;2.55;;
5774;SDS011;2913;51.120;6.772;2023-09-19T03:40:08;22.23;;;3.75;;
5774;SDS011;2913;51.120;6.772;2023-09-19T03:42:37;585.30;;;163.00;;
5774;SDS011;2913;51.120;6.772;2023-09-19T03:45:07;287.05;;;99.40;;
5774;SDS011;2913;51.120;6.772;2023-09-19T03:47:39;40.17;;;14.52;;
5774;SDS011;2913;51.120;6.772;2023-09-19T03:50:05;347.17;;;112.32;;
5774;SDS011;2913;51.120;6.772;2023-09-19T03:52:35;220.43;;;86.10;;
5774;SDS011;2913;51.120;6.772;2023-09-19T03:55:01;524.85;;;148.15;;
5774;SDS011;2913;51.120;6.772;2023-09-19T03:57:29;1035.70;;;286.45;;
5774;SDS011;2913;51.120;6.772;2023-09-19T03:59:57;876.95;;;250.30;;
5774;SDS011;2913;51.120;6.772;2023-09-19T04:02:25;785.35;;;222.95;;
5774;SDS011;2913;51.120;6.772;2023-09-19T04:04:57;694.53;;;197.57;;
5774;SDS011;2913;51.120;6.772;2023-09-19T04:07:26;709.00;;;202.35;;
5774;SDS011;2913;51.120;6.772;2023-09-19T04:09:53;736.15;;;210.57;;
5774;SDS011;2913;51.120;6.772;2023-09-19T04:12:20;767.88;;;216.13;;
5774;SDS011;2913;51.120;6.772;2023-09-19T04:14:46;11.15;;;2.40;;
5774;SDS011;2913;51.120;6.772;2023-09-19T04:17:12;791.40;;;225.88;;
5774;SDS011;2913;51.120;6.772;2023-09-19T04:19:40;843.33;;;241.93;;
5774;SDS011;2913;51.120;6.772;2023-09-19T04:22:06;828.08;;;235.73;;
5774;SDS011;2913;51.120;6.772;2023-09-19T04:24:32;795.80;;;227.00;;
5774;SDS011;2913;51.120;6.772;2023-09-19T04:26:58;809.70;;;229.52;;
5774;SDS011;2913;51.120;6.772;2023-09-19T04:29:24;912.90;;;261.00;;
5774;SDS011;2913;51.120;6.772;2023-09-19T04:31:51;941.08;;;268.38;;
5774;SDS011;2913;51.120;6.772;2023-09-19T04:34:19;908.47;;;261.50;;
5774;SDS011;2913;51.120;6.772;2023-09-19T04:36:44;536.05;;;152.07;;
5774;SDS011;2913;51.120;6.772;2023-09-19T04:39:10;854.28;;;242.82;;
5774;SDS011;2913;51.120;6.772;2023-09-19T04:41:37;1039.07;;;294.25;;
5774;SDS011;2913;51.120;6.772;2023-09-19T04:44:05;1063.25;;;300.10;;
5774;SDS011;2913;51.120;6.772;2023-09-19T04:46:32;1104.18;;;312.58;;
5774;SDS011;2913;51.120;6.772;2023-09-19T04:48:58;1142.22;;;319.27;;
5774;SDS011;2913;51.120;6.772;2023-09-19T04:51:24;1192.13;;;331.33;;
5774;SDS011;2913;51.120;6.772;2023-09-19T04:53:50;1194.78;;;333.73;;
5774;SDS011;2913;51.120;6.772;2023-09-19T04:56:18;1237.55;;;345.75;;
5774;SDS011;2913;51.120;6.772;2023-09-19T04:58:46;20.73;;;2.95;;
5774;SDS011;2913;51.120;6.772;2023-09-19T05:01:15;17.00;;;2.42;;
5774;SDS011;2913;51.120;6.772;2023-09-19T05:03:43;21.83;;;2.58;;
5774;SDS011;2913;51.120;6.772;2023-09-19T05:06:14;21.33;;;3.25;;
5774;SDS011;2913;51.120;6.772;2023-09-19T05:08:40;17.60;;;2.50;;
5774;SDS011;2913;51.120;6.772;2023-09-19T05:11:05;22.70;;;2.47;;
5774;SDS011;2913;51.120;6.772;2023-09-19T05:13:31;30.15;;;2.75;;
5774;SDS011;2913;51.120;6.772;2023-09-19T05:15:59;17.38;;;2.63;;
5774;SDS011;2913;51.120;6.772;2023-09-19T05:18:27;24.08;;;3.72;;
5774;SDS011;2913;51.120;6.772;2023-09-19T05:20:53;16.98;;;2.30;;
5774;SDS011;2913;51.120;6.772;2023-09-19T05:23:19;25.33;;;3.58;;
5774;SDS011;2913;51.120;6.772;2023-09-19T05:25:46;19.80;;;2.33;;
5774;SDS011;2913;51.120;6.772;2023-09-19T05:28:14;161.00;;;45.17;;
5774;SDS011;2913;51.120;6.772;2023-09-19T05:30:42;1253.93;;;350.60;;
5774;SDS011;2913;51.120;6.772;2023-09-19T05:33:11;1296.25;;;355.30;;
5774;SDS011;2913;51.120;6.772;2023-09-19T05:35:36;1310.18;;;361.25;;
5774;SDS011;2913;51.120;6.772;2023-09-19T05:38:05;1373.03;;;381.25;;
5774;SDS011;2913;51.120;6.772;2023-09-19T05:40:33;1214.50;;;339.33;;
5774;SDS011;2913;51.120;6.772;2023-09-19T05:43:00;1280.32;;;353.73;;
5774;SDS011;2913;51.120;6.772;2023-09-19T05:45:27;1396.10;;;387.83;;
5774;SDS011;2913;51.120;6.772;2023-09-19T05:47:55;1278.85;;;353.90;;
5774;SDS011;2913;51.120;6.772;2023-09-19T05:50:29;1297.68;;;355.80;;
5774;SDS011;2913;51.120;6.772;2023-09-19T05:53:00;1334.40;;;365.40;;
5774;SDS011;2913;51.120;6.772;2023-09-19T05:55:29;1487.25;;;407.20;;
5774;SDS011;2913;51.120;6.772;2023-09-19T05:57:57;1527.82;;;417.27;;
5774;SDS011;2913;51.120;6.772;2023-09-19T06:00:25;1376.53;;;375.17;;
5774;SDS011;2913;51.120;6.772;2023-09-19T06:02:57;1384.20;;;378.85;;
5774;SDS011;2913;51.120;6.772;2023-09-19T06:05:24;1332.53;;;363.10;;
5774;SDS011;2913;51.120;6.772;2023-09-19T06:07:55;1269.38;;;349.27;;
5774;SDS011;2913;51.120;6.772;2023-09-19T06:10:24;1445.15;;;394.38;;
5774;SDS011;2913;51.120;6.772;2023-09-19T06:12:51;1321.22;;;360.00;;
5774;SDS011;2913;51.120;6.772;2023-09-19T06:15:19;1428.68;;;390.27;;
5774;SDS011;2913;51.120;6.772;2023-09-19T06:17:48;1416.30;;;385.80;;
5774;SDS011;2913;51.120;6.772;2023-09-19T06:20:15;1509.63;;;410.55;;
5774;SDS011;2913;51.120;6.772;2023-09-19T06:22:42;1458.53;;;395.67;;
5774;SDS011;2913;51.120;6.772;2023-09-19T06:25:12;1542.20;;;419.25;;
5774;SDS011;2913;51.120;6.772;2023-09-19T06:27:44;1614.55;;;437.52;;
5774;SDS011;2913;51.120;6.772;2023-09-19T06:30:22;1669.90;;;454.10;;
5774;SDS011;2913;51.120;6.772;2023-09-19T06:32:49;1541.78;;;419.40;;
5774;SDS011;2913;51.120;6.772;2023-09-19T06:35:22;1513.25;;;409.90;;
5774;SDS011;2913;51.120;6.772;2023-09-19T06:37:48;1492.03;;;402.40;;
5774;SDS011;2913;51.120;6.772;2023-09-19T06:40:15;1308.63;;;352.23;;
5774;SDS011;2913;51.120;6.772;2023-09-19T06:42:45;1400.53;;;376.88;;
5774;SDS011;2913;51.120;6.772;2023-09-19T06:45:12;1467.50;;;397.77;;
5774;SDS011;2913;51.120;6.772;2023-09-19T06:47:47;1520.75;;;413.33;;
5774;SDS011;2913;51.120;6.772;2023-09-19T06:52:43;1552.28;;;425.13;;
5774;SDS011;2913;51.120;6.772;2023-09-19T06:55:10;1569.82;;;426.95;;
5774;SDS011;2913;51.120;6.772;2023-09-19T06:57:41;1612.63;;;438.50;;
5774;SDS011;2913;51.120;6.772;2023-09-19T07:00:10;1659.35;;;452.05;;
5774;SDS011;2913;51.120;6.772;2023-09-19T07:02:43;1327.28;;;358.80;;
5774;SDS011;2913;51.120;6.772;2023-09-19T07:05:24;1403.65;;;380.10;;
5774;SDS011;2913;51.120;6.772;2023-09-19T07:07:50;1507.80;;;408.60;;
5774;SDS011;2913;51.120;6.772;2023-09-19T07:10:16;1563.40;;;420.42;;
5774;SDS011;2913;51.120;6.772;2023-09-19T07:12:43;1611.50;;;433.17;;
5774;SDS011;2913;51.120;6.772;2023-09-19T07:15:13;1618.55;;;436.90;;
5774;SDS011;2913;51.120;6.772;2023-09-19T07:17:39;1660.20;;;444.33;;
5774;SDS011;2913;51.120;6.772;2023-09-19T07:20:05;1640.75;;;441.67;;
5774;SDS011;2913;51.120;6.772;2023-09-19T07:22:35;1472.65;;;396.20;;
5774;SDS011;2913;51.120;6.772;2023-09-19T07:25:04;1580.35;;;422.67;;
5774;SDS011;2913;51.120;6.772;2023-09-19T07:27:30;1650.57;;;442.15;;
5774;SDS011;2913;51.120;6.772;2023-09-19T07:29:57;1694.13;;;453.38;;
5774;SDS011;2913;51.120;6.772;2023-09-19T07:32:23;1667.40;;;442.58;;
5774;SDS011;2913;51.120;6.772;2023-09-19T07:34:49;1409.20;;;378.00;;
5774;SDS011;2913;51.120;6.772;2023-09-19T07:37:19;1007.95;;;271.65;;
5774;SDS011;2913;51.120;6.772;2023-09-19T07:39:46;792.45;;;216.63;;
5774;SDS011;2913;51.120;6.772;2023-09-19T07:42:12;815.17;;;222.77;;
5774;SDS011;2913;51.120;6.772;2023-09-19T07:44:43;884.67;;;241.27;;
5774;SDS011;2913;51.120;6.772;2023-09-19T07:47:16;784.95;;;214.50;;
5774;SDS011;2913;51.120;6.772;2023-09-19T07:49:41;601.13;;;167.18;;
5774;SDS011;2913;51.120;6.772;2023-09-19T07:52:08;802.75;;;219.60;;
5774;SDS011;2913;51.120;6.772;2023-09-19T07:57:06;757.10;;;207.57;;
5774;SDS011;2913;51.120;6.772;2023-09-19T07:59:32;828.72;;;225.85;;
5774;SDS011;2913;51.120;6.772;2023-09-19T08:01:58;719.15;;;199.23;;
5774;SDS011;2913;51.120;6.772;2023-09-19T08:04:23;877.75;;;237.77;;
5774;SDS011;2913;51.120;6.772;2023-09-19T08:06:51;796.53;;;218.05;;
5774;SDS011;2913;51.120;6.772;2023-09-19T08:09:21;834.20;;;228.68;;
5774;SDS011;2913;51.120;6.772;2023-09-19T08:11:51;809.40;;;220.85;;
5774;SDS011;2913;51.120;6.772;2023-09-19T08:14:17;818.35;;;224.35;;
5774;SDS011;2913;51.120;6.772;2023-09-19T08:16:44;828.47;;;226.32;;
5774;SDS011;2913;51.120;6.772;2023-09-19T08:19:12;790.17;;;217.32;;
5774;SDS011;2913;51.120;6.772;2023-09-19T08:21:40;709.03;;;196.00;;
5774;SDS011;2913;51.120;6.772;2023-09-19T08:24:07;830.00;;;226.10;;
5774;SDS011;2913;51.120;6.772;2023-09-19T08:26:34;884.42;;;239.07;;
5774;SDS011;2913;51.120;6.772;2023-09-19T08:29:02;958.28;;;257.50;;
5774;SDS011;2913;51.120;6.772;2023-09-19T08:31:29;1120.18;;;295.80;;
5774;SDS011;2913;51.120;6.772;2023-09-19T08:33:55;1031.97;;;275.35;;
5774;SDS011;2913;51.120;6.772;2023-09-19T08:36:23;1090.25;;;288.75;;
5774;SDS011;2913;51.120;6.772;2023-09-19T08:38:54;1027.85;;;272.42;;
5774;SDS011;2913;51.120;6.772;2023-09-19T08:41:23;1101.75;;;289.73;;
5774;SDS011;2913;51.120;6.772;2023-09-19T08:43:51;941.97;;;253.80;;
5774;SDS011;2913;51.120;6.772;2023-09-19T08:46:18;844.65;;;230.38;;
5774;SDS011;2913;51.120;6.772;2023-09-19T08:48:46;791.40;;;216.27;;
5774;SDS011;2913;51.120;6.772;2023-09-19T08:54:28;83.85;;;41.13;;
5774;SDS011;2913;51.120;6.772;2023-09-19T08:56:57;32.30;;;12.95;;
5774;SDS011;2913;51.120;6.772;2023-09-19T08:59:27;21.67;;;4.82;;
5774;SDS011;2913;51.120;6.772;2023-09-19T09:01:54;25.55;;;3.10;;
5774;SDS011;2913;51.120;6.772;2023-09-19T09:04:21;12.23;;;2.10;;
5774;SDS011;2913;51.120;6.772;2023-09-19T09:06:48;18.65;;;2.08;;
5774;SDS011;2913;51.120;6.772;2023-09-19T09:09:18;29.30;;;9.63;;
5774;SDS011;2913;51.120;6.772;2023-09-19T09:11:44;25.52;;;3.35;;
5774;SDS011;2913;51.120;6.772;2023-09-19T09:14:16;20.17;;;3.33;;
5774;SDS011;2913;51.120;6.772;2023-09-19T09:16:42;15.98;;;2.67;;
5774;SDS011;2913;51.120;6.772;2023-09-19T09:19:10;29.80;;;12.35;;
5774;SDS011;2913;51.120;6.772;2023-09-19T09:21:36;20.33;;;3.50;;
5774;SDS011;2913;51.120;6.772;2023-09-19T09:26:55;71.75;;;30.60;;
5774;SDS011;2913;51.120;6.772;2023-09-19T09:29:39;137.48;;;54.22;;
5774;SDS011;2913;51.120;6.772;2023-09-19T09:32:16;449.63;;;132.65;;
5774;SDS011;2913;51.120;6.772;2023-09-19T09:34:51;767.20;;;205.45;;
5774;SDS011;2913;51.120;6.772;2023-09-19T09:37:18;1898.18;;;453.65;;
5774;SDS011;2913;51.120;6.772;2023-09-19T09:39:55;1527.57;;;377.92;;
5774;SDS011;2913;51.120;6.772;2023-09-19T09:42:35;1725.95;;;425.02;;
5774;SDS011;2913;51.120;6.772;2023-09-19T09:48:02;1999.90;;;546.88;;
5774;SDS011;2913;51.120;6.772;2023-09-19T09:50:33;1999.90;;;529.65;;
5774;SDS011;2913;51.120;6.772;2023-09-19T09:53:22;1019.15;;;267.52;;
5774;SDS011;2913;51.120;6.772;2023-09-19T09:56:07;1169.35;;;297.50;;
5774;SDS011;2913;51.120;6.772;2023-09-19T10:01:24;1501.18;;;373.13;;
5774;SDS011;2913;51.120;6.772;2023-09-19T10:03:59;1228.13;;;311.95;;
5774;SDS011;2913;51.120;6.772;2023-09-19T10:06:25;1411.43;;;348.20;;
5774;SDS011;2913;51.120;6.772;2023-09-19T10:09:07;1603.40;;;388.90;;
5774;SDS011;2913;51.120;6.772;2023-09-19T10:14:15;850.00;;;229.63;;
5774;SDS011;2913;51.120;6.772;2023-09-19T10:16:46;819.53;;;220.10;;
5774;SDS011;2913;51.120;6.772;2023-09-19T10:19:21;836.63;;;224.77;;
5774;SDS011;2913;51.120;6.772;2023-09-19T10:21:53;807.42;;;219.07;;
5774;SDS011;2913;51.120;6.772;2023-09-19T10:24:21;848.40;;;227.30;;
5774;SDS011;2913;51.120;6.772;2023-09-19T10:26:49;971.55;;;255.65;;
5774;SDS011;2913;51.120;6.772;2023-09-19T10:29:16;1291.78;;;323.75;;
5774;SDS011;2913;51.120;6.772;2023-09-19T10:31:47;744.42;;;204.52;;
5774;SDS011;2913;51.120;6.772;2023-09-19T10:34:15;1010.75;;;261.90;;
5774;SDS011;2913;51.120;6.772;2023-09-19T10:36:45;1665.13;;;408.75;;
5774;SDS011;2913;51.120;6.772;2023-09-19T10:39:16;1398.85;;;347.65;;
5774;SDS011;2913;51.120;6.772;2023-09-19T10:41:44;1266.25;;;318.63;;
5774;SDS011;2913;51.120;6.772;2023-09-19T10:44:25;1271.30;;;320.10;;
5774;SDS011;2913;51.120;6.772;2023-09-19T10:46:51;1244.83;;;312.40;;
5774;SDS011;2913;51.120;6.772;2023-09-19T10:49:21;1454.78;;;359.60;;
5774;SDS011;2913;51.120;6.772;2023-09-19T10:51:47;1999.90;;;522.28;;
5774;SDS011;2913;51.120;6.772;2023-09-19T10:54:18;1508.63;;;370.00;;
5774;SDS011;2913;51.120;6.772;2023-09-19T10:56:52;1633.20;;;395.85;;
5774;SDS011;2913;51.120;6.772;2023-09-19T10:59:20;1522.15;;;380.55;;
5774;SDS011;2913;51.120;6.772;2023-09-19T11:14:56;1935.88;;;489.42;;
5774;SDS011;2913;51.120;6.772;2023-09-19T11:30:31;1999.90;;;674.28;;
5774;SDS011;2913;51.120;6.772;2023-09-19T11:33:17;1999.90;;;669.22;;
5774;SDS011;2913;51.120;6.772;2023-09-19T11:43:51;1999.90;;;696.70;;
5774;SDS011;2913;51.120;6.772;2023-09-19T11:46:20;1999.90;;;704.65;;
5774;SDS011;2913;51.120;6.772;2023-09-19T11:48:52;1999.90;;;711.50;;
5774;SDS011;2913;51.120;6.772;2023-09-19T11:51:21;1999.90;;;711.55;;
5774;SDS011;2913;51.120;6.772;2023-09-19T11:53:51;1999.90;;;706.97;;
5774;SDS011;2913;51.120;6.772;2023-09-19T11:56:19;1999.90;;;705.80;;
5774;SDS011;2913;51.120;6.772;2023-09-19T11:58:53;1999.90;;;702.67;;
5774;SDS011;2913;51.120;6.772;2023-09-19T12:01:30;1999.90;;;707.65;;
5774;SDS011;2913;51.120;6.772;2023-09-19T12:03:58;1999.90;;;710.50;;
5774;SDS011;2913;51.120;6.772;2023-09-19T12:06:28;1999.90;;;707.28;;
5774;SDS011;2913;51.120;6.772;2023-09-19T12:08:57;1999.90;;;705.17;;
5774;SDS011;2913;51.120;6.772;2023-09-19T12:11:33;1999.90;;;703.72;;
5774;SDS011;2913;51.120;6.772;2023-09-19T12:14:07;1999.90;;;708.70;;
5774;SDS011;2913;51.120;6.772;2023-09-19T12:16:33;1999.90;;;703.67;;
5774;SDS011;2913;51.120;6.772;2023-09-19T12:19:17;1999.90;;;711.85;;
5774;SDS011;2913;51.120;6.772;2023-09-19T12:21:53;1999.90;;;711.50;;
5774;SDS011;2913;51.120;6.772;2023-09-19T12:24:22;1999.90;;;715.72;;
5774;SDS011;2913;51.120;6.772;2023-09-19T12:26:54;1999.90;;;700.90;;
5774;SDS011;2913;51.120;6.772;2023-09-19T12:29:26;1999.90;;;710.25;;
5774;SDS011;2913;51.120;6.772;2023-09-19T12:31:53;1999.90;;;713.60;;
5774;SDS011;2913;51.120;6.772;2023-09-19T12:34:31;1999.90;;;707.90;;
5774;SDS011;2913;51.120;6.772;2023-09-19T12:37:04;1999.90;;;710.78;;
5774;SDS011;2913;51.120;6.772;2023-09-19T12:39:36;1999.90;;;708.55;;
5774;SDS011;2913;51.120;6.772;2023-09-19T12:42:09;1999.90;;;711.60;;
5774;SDS011;2913;51.120;6.772;2023-09-19T12:44:40;1999.90;;;712.92;;
5774;SDS011;2913;51.120;6.772;2023-09-19T12:47:17;1999.90;;;711.53;;
5774;SDS011;2913;51.120;6.772;2023-09-19T12:52:38;1999.90;;;708.38;;
5774;SDS011;2913;51.120;6.772;2023-09-19T12:55:16;1999.90;;;715.28;;
5774;SDS011;2913;51.120;6.772;2023-09-19T13:00:40;1999.90;;;716.13;;
5774;SDS011;2913;51.120;6.772;2023-09-19T13:08:41;1999.90;;;713.20;;
5774;SDS011;2913;51.120;6.772;2023-09-19T13:13:47;1999.90;;;714.58;;
5774;SDS011;2913;51.120;6.772;2023-09-19T13:16:19;1999.90;;;711.35;;
5774;SDS011;2913;51.120;6.772;2023-09-19T13:18:51;1999.90;;;711.47;;
5774;SDS011;2913;51.120;6.772;2023-09-19T13:21:29;1999.90;;;714.22;;
5774;SDS011;2913;51.120;6.772;2023-09-19T13:24:18;1999.90;;;714.75;;
5774;SDS011;2913;51.120;6.772;2023-09-19T13:26:54;1999.90;;;712.38;;
5774;SDS011;2913;51.120;6.772;2023-09-19T13:29:22;1999.90;;;708.90;;
5774;SDS011;2913;51.120;6.772;2023-09-19T13:31:49;1999.90;;;645.17;;
5774;SDS011;2913;51.120;6.772;2023-09-19T13:34:16;1999.90;;;631.65;;
5774;SDS011;2913;51.120;6.772;2023-09-19T13:36:42;1999.90;;;657.40;;
5774;SDS011;2913;51.120;6.772;2023-09-19T13:39:09;1999.90;;;664.72;;
5774;SDS011;2913;51.120;6.772;2023-09-19T13:41:38;1999.90;;;669.55;;
5774;SDS011;2913;51.120;6.772;2023-09-19T13:44:06;1999.90;;;669.05;;
5774;SDS011;2913;51.120;6.772;2023-09-19T13:46:31;1999.90;;;675.45;;
5774;SDS011;2913;51.120;6.772;2023-09-19T13:49:00;1999.90;;;676.40;;
5774;SDS011;2913;51.120;6.772;2023-09-19T13:51:31;1999.90;;;680.20;;
5774;SDS011;2913;51.120;6.772;2023-09-19T13:53:57;1999.90;;;673.72;;
5774;SDS011;2913;51.120;6.772;2023-09-19T13:56:24;1999.90;;;678.13;;
5774;SDS011;2913;51.120;6.772;2023-09-19T13:58:52;1999.90;;;679.03;;
5774;SDS011;2913;51.120;6.772;2023-09-19T14:01:21;1999.90;;;681.78;;
5774;SDS011;2913;51.120;6.772;2023-09-19T14:03:54;1999.90;;;682.85;;
5774;SDS011;2913;51.120;6.772;2023-09-19T14:06:23;1999.90;;;681.78;;
5774;SDS011;2913;51.120;6.772;2023-09-19T14:08:51;1999.90;;;685.55;;
5774;SDS011;2913;51.120;6.772;2023-09-19T14:11:20;1999.90;;;686.47;;
5774;SDS011;2913;51.120;6.772;2023-09-19T14:13:45;1999.90;;;689.25;;
5774;SDS011;2913;51.120;6.772;2023-09-19T14:16:16;1999.90;;;687.90;;
5774;SDS011;2913;51.120;6.772;2023-09-19T14:18:44;1999.90;;;689.25;;
5774;SDS011;2913;51.120;6.772;2023-09-19T14:21:13;1999.90;;;690.20;;
5774;SDS011;2913;51.120;6.772;2023-09-19T14:23:41;1999.90;;;695.03;;
5774;SDS011;2913;51.120;6.772;2023-09-19T14:26:08;1999.90;;;694.25;;
5774;SDS011;2913;51.120;6.772;2023-09-19T14:28:34;1999.90;;;697.90;;
5774;SDS011;2913;51.120;6.772;2023-09-19T14:31:06;1999.90;;;701.00;;
5774;SDS011;2913;51.120;6.772;2023-09-19T14:33:35;1999.90;;;701.97;;
5774;SDS011;2913;51.120;6.772;2023-09-19T14:36:04;1999.90;;;702.20;;
5774;SDS011;2913;51.120;6.772;2023-09-19T14:38:31;1999.90;;;700.45;;
5774;SDS011;2913;51.120;6.772;2023-09-19T14:41:01;1999.90;;;702.00;;
5774;SDS011;2913;51.120;6.772;2023-09-19T14:43:27;1999.90;;;705.22;;
5774;SDS011;2913;51.120;6.772;2023-09-19T14:45:57;1999.90;;;707.13;;
5774;SDS011;2913;51.120;6.772;2023-09-19T14:48:25;1999.90;;;705.70;;
5774;SDS011;2913;51.120;6.772;2023-09-19T14:50:54;1999.90;;;703.33;;
5774;SDS011;2913;51.120;6.772;2023-09-19T14:53:20;1999.90;;;702.38;;
5774;SDS011;2913;51.120;6.772;2023-09-19T14:55:46;1999.90;;;710.92;;
5774;SDS011;2913;51.120;6.772;2023-09-19T14:58:24;1999.90;;;712.22;;
5774;SDS011;2913;51.120;6.772;2023-09-19T15:00:51;1999.90;;;710.40;;
5774;SDS011;2913;51.120;6.772;2023-09-19T15:03:17;1999.90;;;713.00;;
5774;SDS011;2913;51.120;6.772;2023-09-19T15:05:58;1999.90;;;719.13;;
5774;SDS011;2913;51.120;6.772;2023-09-19T15:08:29;1999.90;;;710.47;;
5774;SDS011;2913;51.120;6.772;2023-09-19T15:10:55;1999.90;;;713.15;;
5774;SDS011;2913;51.120;6.772;2023-09-19T15:13:25;1999.90;;;712.88;;
5774;SDS011;2913;51.120;6.772;2023-09-19T15:15:58;1999.90;;;712.47;;
5774;SDS011;2913;51.120;6.772;2023-09-19T15:18:34;1999.90;;;721.97;;
5774;SDS011;2913;51.120;6.772;2023-09-19T15:21:02;1999.90;;;717.63;;
5774;SDS011;2913;51.120;6.772;2023-09-19T15:23:33;1999.90;;;719.88;;
5774;SDS011;2913;51.120;6.772;2023-09-19T15:26:04;1999.90;;;722.60;;
5774;SDS011;2913;51.120;6.772;2023-09-19T15:28:31;1999.90;;;723.13;;
5774;SDS011;2913;51.120;6.772;2023-09-19T15:31:00;1999.90;;;719.38;;
5774;SDS011;2913;51.120;6.772;2023-09-19T15:33:26;1999.90;;;719.47;;
5774;SDS011;2913;51.120;6.772;2023-09-19T15:36:00;1999.90;;;720.10;;
5774;SDS011;2913;51.120;6.772;2023-09-19T15:41:44;1999.90;;;720.83;;
5774;SDS011;2913;51.120;6.772;2023-09-19T15:44:15;1999.90;;;721.20;;
5774;SDS011;2913;51.120;6.772;2023-09-19T15:46:42;1999.90;;;719.22;;
5774;SDS011;2913;51.120;6.772;2023-09-19T15:49:16;1999.90;;;719.47;;
5774;SDS011;2913;51.120;6.772;2023-09-19T15:51:44;1999.90;;;724.05;;
5774;SDS011;2913;51.120;6.772;2023-09-19T15:54:11;1999.90;;;721.78;;
5774;SDS011;2913;51.120;6.772;2023-09-19T15:56:43;1999.90;;;725.42;;
5774;SDS011;2913;51.120;6.772;2023-09-19T15:59:10;1999.90;;;722.95;;
5774;SDS011;2913;51.120;6.772;2023-09-19T16:01:40;1999.90;;;732.95;;
5774;SDS011;2913;51.120;6.772;2023-09-19T16:04:08;1999.90;;;729.40;;